Aviation Digital Data Service (ADDS)

Output produced by METARs form (0756 UTC 20 September 2014)
found at http://aviationweather.gov/adds/metars/
 
KMHT 200538Z 2006/2106 00000KT P6SM SKC 
     FM201400 20006KT P6SM FEW060